sensor_id;sensor_type;location;lat;lon;timestamp;P1;durP1;ratioP1;P2;durP2;ratioP2
14292;SDS011;62290;59.420;17.842;2023-11-25T00:01:03;1.42;;;0.73;;
14292;SDS011;62290;59.420;17.842;2023-11-25T00:03:32;0.70;;;0.60;;
14292;SDS011;62290;59.420;17.842;2023-11-25T00:06:00;1.15;;;0.82;;
14292;SDS011;62290;59.420;17.842;2023-11-25T00:08:28;1.02;;;0.70;;
14292;SDS011;62290;59.420;17.842;2023-11-25T00:10:56;1.23;;;1.00;;
14292;SDS011;62290;59.420;17.842;2023-11-25T00:13:24;0.75;;;0.65;;
14292;SDS011;62290;59.420;17.842;2023-11-25T00:15:53;2.42;;;0.85;;
14292;SDS011;62290;59.420;17.842;2023-11-25T00:18:21;3.10;;;0.85;;
14292;SDS011;62290;59.420;17.842;2023-11-25T00:20:50;1.33;;;0.80;;
14292;SDS011;62290;59.420;17.842;2023-11-25T00:23:18;1.50;;;0.95;;
14292;SDS011;62290;59.420;17.842;2023-11-25T00:25:46;0.98;;;0.80;;
14292;SDS011;62290;59.420;17.842;2023-11-25T00:28:14;0.95;;;0.85;;
14292;SDS011;62290;59.420;17.842;2023-11-25T00:30:43;2.40;;;1.17;;
14292;SDS011;62290;59.420;17.842;2023-11-25T00:33:13;0.80;;;0.73;;
14292;SDS011;62290;59.420;17.842;2023-11-25T00:35:41;2.85;;;0.82;;
14292;SDS011;62290;59.420;17.842;2023-11-25T00:38:09;1.42;;;0.80;;
14292;SDS011;62290;59.420;17.842;2023-11-25T00:40:37;1.23;;;1.00;;
14292;SDS011;62290;59.420;17.842;2023-11-25T00:43:05;1.42;;;1.00;;
14292;SDS011;62290;59.420;17.842;2023-11-25T00:45:33;1.27;;;0.90;;
14292;SDS011;62290;59.420;17.842;2023-11-25T00:48:01;2.15;;;1.20;;
14292;SDS011;62290;59.420;17.842;2023-11-25T00:50:31;2.42;;;1.05;;
14292;SDS011;62290;59.420;17.842;2023-11-25T00:52:59;1.88;;;1.20;;
14292;SDS011;62290;59.420;17.842;2023-11-25T00:55:27;7.38;;;1.23;;
14292;SDS011;62290;59.420;17.842;2023-11-25T00:57:56;1.55;;;0.90;;
14292;SDS011;62290;59.420;17.842;2023-11-25T01:00:25;1.67;;;1.10;;
14292;SDS011;62290;59.420;17.842;2023-11-25T01:02:53;2.15;;;1.00;;
14292;SDS011;62290;59.420;17.842;2023-11-25T01:05:23;1.30;;;0.90;;
14292;SDS011;62290;59.420;17.842;2023-11-25T01:07:52;5.50;;;1.50;;
14292;SDS011;62290;59.420;17.842;2023-11-25T01:10:20;2.55;;;1.10;;
14292;SDS011;62290;59.420;17.842;2023-11-25T01:12:48;2.15;;;1.48;;
14292;SDS011;62290;59.420;17.842;2023-11-25T01:15:16;2.25;;;0.90;;
14292;SDS011;62290;59.420;17.842;2023-11-25T01:17:46;1.45;;;1.08;;
14292;SDS011;62290;59.420;17.842;2023-11-25T01:20:14;2.13;;;1.25;;
14292;SDS011;62290;59.420;17.842;2023-11-25T01:22:42;1.50;;;0.95;;
14292;SDS011;62290;59.420;17.842;2023-11-25T01:25:13;1.38;;;1.10;;
14292;SDS011;62290;59.420;17.842;2023-11-25T01:27:41;1.55;;;1.08;;
14292;SDS011;62290;59.420;17.842;2023-11-25T01:30:10;1.75;;;1.10;;
14292;SDS011;62290;59.420;17.842;2023-11-25T01:32:39;2.58;;;1.20;;
14292;SDS011;62290;59.420;17.842;2023-11-25T01:35:06;1.10;;;0.93;;
14292;SDS011;62290;59.420;17.842;2023-11-25T01:37:34;1.48;;;1.13;;
14292;SDS011;62290;59.420;17.842;2023-11-25T01:40:02;2.03;;;1.13;;
14292;SDS011;62290;59.420;17.842;2023-11-25T01:42:34;1.75;;;1.27;;
14292;SDS011;62290;59.420;17.842;2023-11-25T01:45:02;2.42;;;1.10;;
14292;SDS011;62290;59.420;17.842;2023-11-25T01:47:30;1.75;;;1.00;;
14292;SDS011;62290;59.420;17.842;2023-11-25T01:49:59;1.52;;;1.00;;
14292;SDS011;62290;59.420;17.842;2023-11-25T01:52:29;2.42;;;1.00;;
14292;SDS011;62290;59.420;17.842;2023-11-25T01:54:58;0.90;;;0.80;;
14292;SDS011;62290;59.420;17.842;2023-11-25T01:57:27;1.38;;;1.02;;
14292;SDS011;62290;59.420;17.842;2023-11-25T01:59:58;1.00;;;0.90;;
14292;SDS011;62290;59.420;17.842;2023-11-25T02:02:37;1.23;;;1.00;;
14292;SDS011;62290;59.420;17.842;2023-11-25T02:05:07;2.10;;;0.80;;
14292;SDS011;62290;59.420;17.842;2023-11-25T02:07:35;1.63;;;0.90;;
14292;SDS011;62290;59.420;17.842;2023-11-25T02:10:04;1.92;;;1.00;;
14292;SDS011;62290;59.420;17.842;2023-11-25T02:12:33;1.50;;;1.02;;
14292;SDS011;62290;59.420;17.842;2023-11-25T02:15:06;1.63;;;0.82;;
14292;SDS011;62290;59.420;17.842;2023-11-25T02:17:40;0.85;;;0.80;;
14292;SDS011;62290;59.420;17.842;2023-11-25T02:20:09;1.08;;;0.90;;
14292;SDS011;62290;59.420;17.842;2023-11-25T02:22:41;2.63;;;1.33;;
14292;SDS011;62290;59.420;17.842;2023-11-25T02:25:11;2.00;;;1.20;;
14292;SDS011;62290;59.420;17.842;2023-11-25T02:27:41;2.33;;;1.30;;
14292;SDS011;62290;59.420;17.842;2023-11-25T02:30:10;1.52;;;1.02;;
14292;SDS011;62290;59.420;17.842;2023-11-25T02:32:39;2.03;;;1.17;;
14292;SDS011;62290;59.420;17.842;2023-11-25T02:35:07;1.98;;;1.23;;
14292;SDS011;62290;59.420;17.842;2023-11-25T02:37:36;1.73;;;1.27;;
14292;SDS011;62290;59.420;17.842;2023-11-25T02:40:04;1.20;;;0.90;;
14292;SDS011;62290;59.420;17.842;2023-11-25T02:42:37;1.33;;;0.90;;
14292;SDS011;62290;59.420;17.842;2023-11-25T02:45:06;1.67;;;1.00;;
14292;SDS011;62290;59.420;17.842;2023-11-25T02:47:37;1.75;;;1.10;;
14292;SDS011;62290;59.420;17.842;2023-11-25T02:50:06;1.75;;;1.30;;
14292;SDS011;62290;59.420;17.842;2023-11-25T02:52:34;2.20;;;1.25;;
14292;SDS011;62290;59.420;17.842;2023-11-25T02:55:03;2.63;;;1.08;;
14292;SDS011;62290;59.420;17.842;2023-11-25T02:57:32;1.90;;;1.00;;
14292;SDS011;62290;59.420;17.842;2023-11-25T03:00:01;2.70;;;1.17;;
14292;SDS011;62290;59.420;17.842;2023-11-25T03:02:36;1.60;;;1.00;;
14292;SDS011;62290;59.420;17.842;2023-11-25T03:05:05;1.48;;;0.82;;
14292;SDS011;62290;59.420;17.842;2023-11-25T03:07:34;1.15;;;0.82;;
14292;SDS011;62290;59.420;17.842;2023-11-25T03:10:02;1.35;;;1.08;;
14292;SDS011;62290;59.420;17.842;2023-11-25T03:12:31;0.90;;;0.70;;
14292;SDS011;62290;59.420;17.842;2023-11-25T03:15:00;4.88;;;1.10;;
14292;SDS011;62290;59.420;17.842;2023-11-25T03:17:29;2.17;;;0.90;;
14292;SDS011;62290;59.420;17.842;2023-11-25T03:19:57;1.55;;;0.90;;
14292;SDS011;62290;59.420;17.842;2023-11-25T03:22:25;1.92;;;0.90;;
14292;SDS011;62290;59.420;17.842;2023-11-25T03:24:53;1.35;;;0.90;;
14292;SDS011;62290;59.420;17.842;2023-11-25T03:27:21;1.17;;;0.85;;
14292;SDS011;62290;59.420;17.842;2023-11-25T03:29:49;0.90;;;0.85;;
14292;SDS011;62290;59.420;17.842;2023-11-25T03:32:18;2.28;;;0.90;;
14292;SDS011;62290;59.420;17.842;2023-11-25T03:34:46;0.90;;;0.77;;
14292;SDS011;62290;59.420;17.842;2023-11-25T03:37:14;2.08;;;0.98;;
14292;SDS011;62290;59.420;17.842;2023-11-25T03:39:42;2.22;;;0.98;;
14292;SDS011;62290;59.420;17.842;2023-11-25T03:42:10;1.33;;;0.85;;
14292;SDS011;62290;59.420;17.842;2023-11-25T03:44:38;0.95;;;0.85;;
14292;SDS011;62290;59.420;17.842;2023-11-25T03:47:07;1.52;;;0.80;;
14292;SDS011;62290;59.420;17.842;2023-11-25T03:49:38;1.00;;;0.90;;
14292;SDS011;62290;59.420;17.842;2023-11-25T03:52:06;1.27;;;0.75;;
14292;SDS011;62290;59.420;17.842;2023-11-25T03:54:34;1.10;;;0.80;;
14292;SDS011;62290;59.420;17.842;2023-11-25T03:57:04;9.88;;;0.80;;
14292;SDS011;62290;59.420;17.842;2023-11-25T03:59:33;1.35;;;0.75;;
14292;SDS011;62290;59.420;17.842;2023-11-25T04:02:01;2.70;;;0.73;;
14292;SDS011;62290;59.420;17.842;2023-11-25T04:04:29;1.35;;;0.70;;
14292;SDS011;62290;59.420;17.842;2023-11-25T04:06:58;1.92;;;0.98;;
14292;SDS011;62290;59.420;17.842;2023-11-25T04:09:26;1.02;;;0.75;;
14292;SDS011;62290;59.420;17.842;2023-11-25T04:11:54;0.75;;;0.63;;
14292;SDS011;62290;59.420;17.842;2023-11-25T04:14:22;1.50;;;0.70;;
14292;SDS011;62290;59.420;17.842;2023-11-25T04:16:52;1.25;;;0.70;;
14292;SDS011;62290;59.420;17.842;2023-11-25T04:19:20;1.77;;;0.90;;
14292;SDS011;62290;59.420;17.842;2023-11-25T04:21:48;0.80;;;0.70;;
14292;SDS011;62290;59.420;17.842;2023-11-25T04:24:18;0.52;;;0.47;;
14292;SDS011;62290;59.420;17.842;2023-11-25T04:26:46;0.63;;;0.60;;
14292;SDS011;62290;59.420;17.842;2023-11-25T04:29:14;0.88;;;0.60;;
14292;SDS011;62290;59.420;17.842;2023-11-25T04:31:42;3.00;;;0.63;;
14292;SDS011;62290;59.420;17.842;2023-11-25T04:34:10;0.82;;;0.70;;
14292;SDS011;62290;59.420;17.842;2023-11-25T04:36:38;0.70;;;0.50;;
14292;SDS011;62290;59.420;17.842;2023-11-25T04:39:06;1.98;;;0.75;;
14292;SDS011;62290;59.420;17.842;2023-11-25T04:41:39;0.98;;;0.70;;
14292;SDS011;62290;59.420;17.842;2023-11-25T04:44:08;0.75;;;0.57;;
14292;SDS011;62290;59.420;17.842;2023-11-25T04:46:37;2.05;;;0.75;;
14292;SDS011;62290;59.420;17.842;2023-11-25T04:49:06;1.55;;;0.60;;
14292;SDS011;62290;59.420;17.842;2023-11-25T04:51:34;1.27;;;0.60;;
14292;SDS011;62290;59.420;17.842;2023-11-25T04:54:02;0.50;;;0.50;;
14292;SDS011;62290;59.420;17.842;2023-11-25T04:56:31;0.60;;;0.57;;
14292;SDS011;62290;59.420;17.842;2023-11-25T04:59:00;0.88;;;0.60;;
14292;SDS011;62290;59.420;17.842;2023-11-25T05:01:28;1.00;;;0.65;;
14292;SDS011;62290;59.420;17.842;2023-11-25T05:03:56;0.40;;;0.40;;
14292;SDS011;62290;59.420;17.842;2023-11-25T05:06:25;0.80;;;0.50;;
14292;SDS011;62290;59.420;17.842;2023-11-25T05:08:53;2.40;;;0.40;;
14292;SDS011;62290;59.420;17.842;2023-11-25T05:11:20;2.00;;;0.60;;
14292;SDS011;62290;59.420;17.842;2023-11-25T05:13:48;0.85;;;0.57;;
14292;SDS011;62290;59.420;17.842;2023-11-25T05:16:18;1.13;;;0.65;;
14292;SDS011;62290;59.420;17.842;2023-11-25T05:18:46;0.77;;;0.40;;
14292;SDS011;62290;59.420;17.842;2023-11-25T05:21:14;0.65;;;0.50;;
14292;SDS011;62290;59.420;17.842;2023-11-25T05:23:42;0.68;;;0.50;;
14292;SDS011;62290;59.420;17.842;2023-11-25T05:26:10;0.60;;;0.40;;
14292;SDS011;62290;59.420;17.842;2023-11-25T05:28:39;1.00;;;0.57;;
14292;SDS011;62290;59.420;17.842;2023-11-25T05:31:07;0.85;;;0.55;;
14292;SDS011;62290;59.420;17.842;2023-11-25T05:33:36;0.80;;;0.50;;
14292;SDS011;62290;59.420;17.842;2023-11-25T05:36:04;1.42;;;0.68;;
14292;SDS011;62290;59.420;17.842;2023-11-25T05:38:33;1.13;;;0.68;;
14292;SDS011;62290;59.420;17.842;2023-11-25T05:41:02;1.00;;;0.50;;
14292;SDS011;62290;59.420;17.842;2023-11-25T05:43:30;1.02;;;0.60;;
14292;SDS011;62290;59.420;17.842;2023-11-25T05:45:58;0.43;;;0.43;;
14292;SDS011;62290;59.420;17.842;2023-11-25T05:48:26;0.82;;;0.45;;
14292;SDS011;62290;59.420;17.842;2023-11-25T05:50:55;0.60;;;0.57;;
14292;SDS011;62290;59.420;17.842;2023-11-25T05:53:24;0.70;;;0.50;;
14292;SDS011;62290;59.420;17.842;2023-11-25T05:55:52;0.77;;;0.50;;
14292;SDS011;62290;59.420;17.842;2023-11-25T05:58:22;0.30;;;0.30;;
14292;SDS011;62290;59.420;17.842;2023-11-25T06:00:50;0.55;;;0.50;;
14292;SDS011;62290;59.420;17.842;2023-11-25T06:03:18;0.82;;;0.43;;
14292;SDS011;62290;59.420;17.842;2023-11-25T06:05:46;0.85;;;0.55;;
14292;SDS011;62290;59.420;17.842;2023-11-25T06:08:15;0.63;;;0.50;;
14292;SDS011;62290;59.420;17.842;2023-11-25T06:10:43;0.95;;;0.50;;
14292;SDS011;62290;59.420;17.842;2023-11-25T06:13:14;0.75;;;0.57;;
14292;SDS011;62290;59.420;17.842;2023-11-25T06:15:42;3.03;;;0.40;;
14292;SDS011;62290;59.420;17.842;2023-11-25T06:18:09;0.47;;;0.47;;
14292;SDS011;62290;59.420;17.842;2023-11-25T06:20:40;0.40;;;0.40;;
14292;SDS011;62290;59.420;17.842;2023-11-25T06:23:07;0.75;;;0.57;;
14292;SDS011;62290;59.420;17.842;2023-11-25T06:25:37;0.80;;;0.45;;
14292;SDS011;62290;59.420;17.842;2023-11-25T06:28:05;0.70;;;0.40;;
14292;SDS011;62290;59.420;17.842;2023-11-25T06:30:33;0.40;;;0.40;;
14292;SDS011;62290;59.420;17.842;2023-11-25T06:33:01;0.60;;;0.45;;
14292;SDS011;62290;59.420;17.842;2023-11-25T06:35:29;0.90;;;0.45;;
14292;SDS011;62290;59.420;17.842;2023-11-25T06:37:57;0.65;;;0.50;;
14292;SDS011;62290;59.420;17.842;2023-11-25T06:40:26;0.80;;;0.70;;
14292;SDS011;62290;59.420;17.842;2023-11-25T06:42:55;0.57;;;0.52;;
14292;SDS011;62290;59.420;17.842;2023-11-25T06:45:23;7.65;;;1.50;;
14292;SDS011;62290;59.420;17.842;2023-11-25T06:47:53;0.40;;;0.40;;
14292;SDS011;62290;59.420;17.842;2023-11-25T06:50:21;0.40;;;0.40;;
14292;SDS011;62290;59.420;17.842;2023-11-25T06:52:49;0.63;;;0.60;;
14292;SDS011;62290;59.420;17.842;2023-11-25T06:55:17;0.50;;;0.30;;
14292;SDS011;62290;59.420;17.842;2023-11-25T06:57:46;3.15;;;0.60;;
14292;SDS011;62290;59.420;17.842;2023-11-25T07:00:17;0.77;;;0.50;;
14292;SDS011;62290;59.420;17.842;2023-11-25T07:02:46;0.70;;;0.70;;
14292;SDS011;62290;59.420;17.842;2023-11-25T07:05:15;1.67;;;0.57;;
14292;SDS011;62290;59.420;17.842;2023-11-25T07:07:43;1.35;;;0.57;;
14292;SDS011;62290;59.420;17.842;2023-11-25T07:10:11;0.95;;;0.73;;
14292;SDS011;62290;59.420;17.842;2023-11-25T07:12:41;0.85;;;0.52;;
14292;SDS011;62290;59.420;17.842;2023-11-25T07:15:09;0.80;;;0.55;;
14292;SDS011;62290;59.420;17.842;2023-11-25T07:17:39;0.43;;;0.40;;
14292;SDS011;62290;59.420;17.842;2023-11-25T07:20:08;1.27;;;0.60;;
14292;SDS011;62290;59.420;17.842;2023-11-25T07:22:39;0.40;;;0.40;;
14292;SDS011;62290;59.420;17.842;2023-11-25T07:25:08;1.65;;;0.57;;
14292;SDS011;62290;59.420;17.842;2023-11-25T07:27:39;0.40;;;0.40;;
14292;SDS011;62290;59.420;17.842;2023-11-25T07:30:08;1.00;;;0.70;;
14292;SDS011;62290;59.420;17.842;2023-11-25T07:32:36;0.47;;;0.40;;
14292;SDS011;62290;59.420;17.842;2023-11-25T07:35:06;0.40;;;0.40;;
14292;SDS011;62290;59.420;17.842;2023-11-25T07:37:34;0.75;;;0.50;;
14292;SDS011;62290;59.420;17.842;2023-11-25T07:40:03;0.70;;;0.50;;
14292;SDS011;62290;59.420;17.842;2023-11-25T07:42:35;1.17;;;0.57;;
14292;SDS011;62290;59.420;17.842;2023-11-25T07:45:04;0.85;;;0.50;;
14292;SDS011;62290;59.420;17.842;2023-11-25T07:47:36;0.60;;;0.60;;
14292;SDS011;62290;59.420;17.842;2023-11-25T07:50:06;2.35;;;0.35;;
14292;SDS011;62290;59.420;17.842;2023-11-25T07:52:35;3.13;;;0.52;;
14292;SDS011;62290;59.420;17.842;2023-11-25T07:55:03;0.63;;;0.60;;
14292;SDS011;62290;59.420;17.842;2023-11-25T07:57:32;0.75;;;0.40;;
14292;SDS011;62290;59.420;17.842;2023-11-25T08:00:00;0.93;;;0.50;;
14292;SDS011;62290;59.420;17.842;2023-11-25T08:02:37;1.02;;;0.50;;
14292;SDS011;62290;59.420;17.842;2023-11-25T08:05:07;0.68;;;0.63;;
14292;SDS011;62290;59.420;17.842;2023-11-25T08:07:36;0.40;;;0.40;;
14292;SDS011;62290;59.420;17.842;2023-11-25T08:10:04;1.50;;;0.75;;
14292;SDS011;62290;59.420;17.842;2023-11-25T08:12:34;1.15;;;0.43;;
14292;SDS011;62290;59.420;17.842;2023-11-25T08:15:02;0.52;;;0.52;;
14292;SDS011;62290;59.420;17.842;2023-11-25T08:17:31;0.70;;;0.47;;
14292;SDS011;62290;59.420;17.842;2023-11-25T08:19:59;1.30;;;0.50;;
14292;SDS011;62290;59.420;17.842;2023-11-25T08:22:28;0.50;;;0.50;;
14292;SDS011;62290;59.420;17.842;2023-11-25T08:24:56;0.40;;;0.40;;
14292;SDS011;62290;59.420;17.842;2023-11-25T08:27:26;1.08;;;0.60;;
14292;SDS011;62290;59.420;17.842;2023-11-25T08:29:57;0.75;;;0.40;;
14292;SDS011;62290;59.420;17.842;2023-11-25T08:32:24;1.13;;;0.50;;
14292;SDS011;62290;59.420;17.842;2023-11-25T08:34:53;0.70;;;0.50;;
14292;SDS011;62290;59.420;17.842;2023-11-25T08:37:21;1.05;;;0.63;;
14292;SDS011;62290;59.420;17.842;2023-11-25T08:39:55;0.63;;;0.50;;
14292;SDS011;62290;59.420;17.842;2023-11-25T08:42:23;0.70;;;0.70;;
14292;SDS011;62290;59.420;17.842;2023-11-25T08:44:55;3.40;;;0.88;;
14292;SDS011;62290;59.420;17.842;2023-11-25T08:47:23;1.05;;;0.55;;
14292;SDS011;62290;59.420;17.842;2023-11-25T08:49:51;0.50;;;0.50;;
14292;SDS011;62290;59.420;17.842;2023-11-25T08:52:19;2.45;;;0.60;;
14292;SDS011;62290;59.420;17.842;2023-11-25T08:54:49;0.60;;;0.50;;
14292;SDS011;62290;59.420;17.842;2023-11-25T08:57:20;0.57;;;0.50;;
14292;SDS011;62290;59.420;17.842;2023-11-25T08:59:48;0.85;;;0.50;;
14292;SDS011;62290;59.420;17.842;2023-11-25T09:02:17;1.77;;;0.88;;
14292;SDS011;62290;59.420;17.842;2023-11-25T09:04:49;1.02;;;0.65;;
14292;SDS011;62290;59.420;17.842;2023-11-25T09:07:32;1.00;;;0.50;;
14292;SDS011;62290;59.420;17.842;2023-11-25T09:10:01;3.78;;;0.50;;
14292;SDS011;62290;59.420;17.842;2023-11-25T09:12:33;1.27;;;0.65;;
14292;SDS011;62290;59.420;17.842;2023-11-25T09:15:01;3.03;;;0.60;;
14292;SDS011;62290;59.420;17.842;2023-11-25T09:17:32;0.45;;;0.45;;
14292;SDS011;62290;59.420;17.842;2023-11-25T09:20:02;0.70;;;0.50;;
14292;SDS011;62290;59.420;17.842;2023-11-25T09:22:33;0.63;;;0.52;;
14292;SDS011;62290;59.420;17.842;2023-11-25T09:25:01;1.17;;;0.50;;
14292;SDS011;62290;59.420;17.842;2023-11-25T09:27:29;0.80;;;0.60;;
14292;SDS011;62290;59.420;17.842;2023-11-25T09:29:58;0.63;;;0.55;;
14292;SDS011;62290;59.420;17.842;2023-11-25T09:32:26;0.82;;;0.57;;
14292;SDS011;62290;59.420;17.842;2023-11-25T09:34:56;1.23;;;0.63;;
14292;SDS011;62290;59.420;17.842;2023-11-25T09:37:25;0.60;;;0.60;;
14292;SDS011;62290;59.420;17.842;2023-11-25T09:39:53;0.75;;;0.35;;
14292;SDS011;62290;59.420;17.842;2023-11-25T09:42:21;0.52;;;0.40;;
14292;SDS011;62290;59.420;17.842;2023-11-25T09:44:49;0.93;;;0.70;;
14292;SDS011;62290;59.420;17.842;2023-11-25T09:47:19;1.10;;;0.40;;
14292;SDS011;62290;59.420;17.842;2023-11-25T09:49:49;0.45;;;0.40;;
14292;SDS011;62290;59.420;17.842;2023-11-25T09:52:18;1.40;;;0.70;;
14292;SDS011;62290;59.420;17.842;2023-11-25T09:54:46;1.30;;;0.47;;
14292;SDS011;62290;59.420;17.842;2023-11-25T09:57:15;0.40;;;0.40;;
14292;SDS011;62290;59.420;17.842;2023-11-25T09:59:46;2.40;;;0.43;;
14292;SDS011;62290;59.420;17.842;2023-11-25T10:02:16;1.05;;;0.50;;
14292;SDS011;62290;59.420;17.842;2023-11-25T10:04:46;0.60;;;0.55;;
14292;SDS011;62290;59.420;17.842;2023-11-25T10:07:15;1.73;;;0.68;;
14292;SDS011;62290;59.420;17.842;2023-11-25T10:09:43;0.73;;;0.60;;
14292;SDS011;62290;59.420;17.842;2023-11-25T10:12:11;0.40;;;0.40;;
14292;SDS011;62290;59.420;17.842;2023-11-25T10:14:39;1.13;;;0.57;;
14292;SDS011;62290;59.420;17.842;2023-11-25T10:17:15;0.40;;;0.40;;
14292;SDS011;62290;59.420;17.842;2023-11-25T10:19:44;1.08;;;0.65;;
14292;SDS011;62290;59.420;17.842;2023-11-25T10:22:15;1.17;;;0.50;;
14292;SDS011;62290;59.420;17.842;2023-11-25T10:24:44;0.57;;;0.50;;
14292;SDS011;62290;59.420;17.842;2023-11-25T10:27:13;0.30;;;0.30;;
14292;SDS011;62290;59.420;17.842;2023-11-25T10:29:42;1.52;;;0.50;;
14292;SDS011;62290;59.420;17.842;2023-11-25T10:32:10;1.10;;;0.50;;
14292;SDS011;62290;59.420;17.842;2023-11-25T10:34:38;2.67;;;0.63;;
14292;SDS011;62290;59.420;17.842;2023-11-25T10:37:06;32.25;;;12.57;;
14292;SDS011;62290;59.420;17.842;2023-11-25T10:39:36;36.10;;;10.25;;
14292;SDS011;62290;59.420;17.842;2023-11-25T10:42:05;20.05;;;8.00;;
14292;SDS011;62290;59.420;17.842;2023-11-25T10:44:34;15.73;;;6.28;;
14292;SDS011;62290;59.420;17.842;2023-11-25T10:47:02;11.98;;;4.35;;
14292;SDS011;62290;59.420;17.842;2023-11-25T10:49:31;12.98;;;4.05;;
14292;SDS011;62290;59.420;17.842;2023-11-25T10:52:01;8.65;;;4.03;;
14292;SDS011;62290;59.420;17.842;2023-11-25T10:54:33;5.88;;;2.55;;
14292;SDS011;62290;59.420;17.842;2023-11-25T10:57:04;7.32;;;2.38;;
14292;SDS011;62290;59.420;17.842;2023-11-25T10:59:36;7.53;;;2.15;;
14292;SDS011;62290;59.420;17.842;2023-11-25T11:02:14;2.95;;;1.70;;
14292;SDS011;62290;59.420;17.842;2023-11-25T11:04:52;5.35;;;1.92;;
14292;SDS011;62290;59.420;17.842;2023-11-25T11:07:24;4.07;;;1.70;;
14292;SDS011;62290;59.420;17.842;2023-11-25T11:09:55;3.70;;;1.60;;
14292;SDS011;62290;59.420;17.842;2023-11-25T11:12:27;3.85;;;1.50;;
14292;SDS011;62290;59.420;17.842;2023-11-25T11:15:02;4.20;;;1.48;;
14292;SDS011;62290;59.420;17.842;2023-11-25T11:17:36;3.78;;;1.45;;
14292;SDS011;62290;59.420;17.842;2023-11-25T11:20:08;2.38;;;1.20;;
14292;SDS011;62290;59.420;17.842;2023-11-25T11:22:40;2.40;;;1.33;;
14292;SDS011;62290;59.420;17.842;2023-11-25T11:25:11;3.10;;;1.50;;
14292;SDS011;62290;59.420;17.842;2023-11-25T11:27:49;1.30;;;0.82;;
14292;SDS011;62290;59.420;17.842;2023-11-25T11:30:24;4.85;;;1.70;;
14292;SDS011;62290;59.420;17.842;2023-11-25T11:32:59;2.22;;;1.23;;
14292;SDS011;62290;59.420;17.842;2023-11-25T11:35:34;1.60;;;1.30;;
14292;SDS011;62290;59.420;17.842;2023-11-25T11:38:23;2.35;;;0.85;;
14292;SDS011;62290;59.420;17.842;2023-11-25T11:40:53;3.85;;;1.13;;
14292;SDS011;62290;59.420;17.842;2023-11-25T11:43:22;2.22;;;1.15;;
14292;SDS011;62290;59.420;17.842;2023-11-25T11:45:51;1.48;;;1.00;;
14292;SDS011;62290;59.420;17.842;2023-11-25T11:48:19;6.97;;;1.40;;
14292;SDS011;62290;59.420;17.842;2023-11-25T11:50:49;3.47;;;1.35;;
14292;SDS011;62290;59.420;17.842;2023-11-25T11:53:17;1.90;;;0.82;;
14292;SDS011;62290;59.420;17.842;2023-11-25T11:55:49;1.35;;;0.90;;
14292;SDS011;62290;59.420;17.842;2023-11-25T11:58:19;1.70;;;1.00;;
14292;SDS011;62290;59.420;17.842;2023-11-25T12:00:52;2.60;;;0.95;;
14292;SDS011;62290;59.420;17.842;2023-11-25T12:03:22;1.90;;;1.00;;
14292;SDS011;62290;59.420;17.842;2023-11-25T12:05:50;1.45;;;1.15;;
14292;SDS011;62290;59.420;17.842;2023-11-25T12:08:19;2.30;;;0.75;;
14292;SDS011;62290;59.420;17.842;2023-11-25T12:10:47;2.08;;;0.80;;
14292;SDS011;62290;59.420;17.842;2023-11-25T12:13:23;1.45;;;0.88;;
14292;SDS011;62290;59.420;17.842;2023-11-25T12:15:53;1.42;;;0.70;;
14292;SDS011;62290;59.420;17.842;2023-11-25T12:18:25;2.45;;;0.90;;
14292;SDS011;62290;59.420;17.842;2023-11-25T12:20:54;1.80;;;0.77;;
14292;SDS011;62290;59.420;17.842;2023-11-25T12:23:23;2.35;;;0.70;;
14292;SDS011;62290;59.420;17.842;2023-11-25T12:26:10;1.55;;;0.98;;
14292;SDS011;62290;59.420;17.842;2023-11-25T12:28:40;2.55;;;1.10;;
14292;SDS011;62290;59.420;17.842;2023-11-25T12:31:09;2.45;;;1.17;;
14292;SDS011;62290;59.420;17.842;2023-11-25T12:33:37;2.60;;;1.08;;
14292;SDS011;62290;59.420;17.842;2023-11-25T12:36:06;0.63;;;0.60;;
14292;SDS011;62290;59.420;17.842;2023-11-25T12:38:35;2.20;;;0.88;;
14292;SDS011;62290;59.420;17.842;2023-11-25T12:41:04;1.98;;;0.90;;
14292;SDS011;62290;59.420;17.842;2023-11-25T12:43:37;1.65;;;0.90;;
14292;SDS011;62290;59.420;17.842;2023-11-25T12:46:27;1.13;;;0.93;;
14292;SDS011;62290;59.420;17.842;2023-11-25T12:48:55;1.30;;;1.08;;
14292;SDS011;62290;59.420;17.842;2023-11-25T12:51:24;1.25;;;1.02;;
14292;SDS011;62290;59.420;17.842;2023-11-25T12:53:52;1.33;;;0.93;;
14292;SDS011;62290;59.420;17.842;2023-11-25T12:56:21;1.25;;;0.75;;
14292;SDS011;62290;59.420;17.842;2023-11-25T12:58:49;1.95;;;0.70;;
14292;SDS011;62290;59.420;17.842;2023-11-25T13:01:18;1.17;;;0.88;;
14292;SDS011;62290;59.420;17.842;2023-11-25T13:03:52;1.23;;;0.70;;
14292;SDS011;62290;59.420;17.842;2023-11-25T13:06:20;1.50;;;0.80;;
14292;SDS011;62290;59.420;17.842;2023-11-25T13:08:48;3.83;;;0.70;;
14292;SDS011;62290;59.420;17.842;2023-11-25T13:11:17;4.43;;;0.90;;
14292;SDS011;62290;59.420;17.842;2023-11-25T13:13:45;3.72;;;1.30;;
14292;SDS011;62290;59.420;17.842;2023-11-25T13:16:13;3.00;;;1.48;;
14292;SDS011;62290;59.420;17.842;2023-11-25T13:18:45;8.40;;;1.30;;
14292;SDS011;62290;59.420;17.842;2023-11-25T13:21:15;6.88;;;1.95;;
14292;SDS011;62290;59.420;17.842;2023-11-25T13:23:45;2.97;;;1.40;;
14292;SDS011;62290;59.420;17.842;2023-11-25T13:26:13;5.78;;;1.42;;
14292;SDS011;62290;59.420;17.842;2023-11-25T13:28:41;8.32;;;1.65;;
14292;SDS011;62290;59.420;17.842;2023-11-25T13:31:09;6.78;;;1.50;;
14292;SDS011;62290;59.420;17.842;2023-11-25T13:33:37;6.88;;;1.67;;
14292;SDS011;62290;59.420;17.842;2023-11-25T13:36:05;3.08;;;1.27;;
14292;SDS011;62290;59.420;17.842;2023-11-25T13:38:35;9.55;;;1.67;;
14292;SDS011;62290;59.420;17.842;2023-11-25T13:41:03;2.75;;;1.45;;
14292;SDS011;62290;59.420;17.842;2023-11-25T13:43:31;2.65;;;1.33;;
14292;SDS011;62290;59.420;17.842;2023-11-25T13:46:00;3.40;;;0.90;;
14292;SDS011;62290;59.420;17.842;2023-11-25T13:48:30;2.92;;;0.90;;
14292;SDS011;62290;59.420;17.842;2023-11-25T13:50:58;4.32;;;1.20;;
14292;SDS011;62290;59.420;17.842;2023-11-25T13:53:29;5.82;;;1.27;;
14292;SDS011;62290;59.420;17.842;2023-11-25T13:55:58;3.90;;;1.67;;
14292;SDS011;62290;59.420;17.842;2023-11-25T13:58:26;2.20;;;1.40;;
14292;SDS011;62290;59.420;17.842;2023-11-25T14:00:54;6.35;;;1.60;;
14292;SDS011;62290;59.420;17.842;2023-11-25T14:03:22;4.70;;;1.83;;
14292;SDS011;62290;59.420;17.842;2023-11-25T14:05:51;1.88;;;0.90;;
14292;SDS011;62290;59.420;17.842;2023-11-25T14:08:21;2.53;;;1.75;;
14292;SDS011;62290;59.420;17.842;2023-11-25T14:10:54;3.17;;;1.13;;
14292;SDS011;62290;59.420;17.842;2023-11-25T14:13:24;1.60;;;1.10;;
14292;SDS011;62290;59.420;17.842;2023-11-25T14:15:55;2.63;;;1.23;;
14292;SDS011;62290;59.420;17.842;2023-11-25T14:18:25;2.00;;;1.00;;
14292;SDS011;62290;59.420;17.842;2023-11-25T14:20:53;3.70;;;1.10;;
14292;SDS011;62290;59.420;17.842;2023-11-25T14:23:21;3.28;;;1.25;;
14292;SDS011;62290;59.420;17.842;2023-11-25T14:25:49;2.55;;;1.10;;
14292;SDS011;62290;59.420;17.842;2023-11-25T14:28:17;2.03;;;0.88;;
14292;SDS011;62290;59.420;17.842;2023-11-25T14:30:47;1.27;;;1.00;;
14292;SDS011;62290;59.420;17.842;2023-11-25T14:33:15;3.22;;;1.02;;
14292;SDS011;62290;59.420;17.842;2023-11-25T14:35:43;2.80;;;0.93;;
14292;SDS011;62290;59.420;17.842;2023-11-25T14:38:11;1.67;;;1.08;;
14292;SDS011;62290;59.420;17.842;2023-11-25T14:40:39;2.53;;;1.10;;
14292;SDS011;62290;59.420;17.842;2023-11-25T14:43:07;1.75;;;1.25;;
14292;SDS011;62290;59.420;17.842;2023-11-25T14:45:36;1.45;;;1.13;;